sensor_id;sensor_type;location;lat;lon;timestamp;pressure;altitude;pressure_sealevel;temperature;humidity
83027;BME280;72842;56.038;12.706;2024-01-10T00:01:31;103482.63;;;3.27;70.31
83027;BME280;72842;56.038;12.706;2024-01-10T00:03:57;103476.44;;;3.25;69.81
83027;BME280;72842;56.038;12.706;2024-01-10T00:06:23;103476.44;;;3.28;69.82
83027;BME280;72842;56.038;12.706;2024-01-10T00:08:49;103471.13;;;3.27;70.01
83027;BME280;72842;56.038;12.706;2024-01-10T00:11:14;103478.22;;;3.28;70.32
83027;BME280;72842;56.038;12.706;2024-01-10T00:13:39;103486.16;;;3.29;70.47
83027;BME280;72842;56.038;12.706;2024-01-10T00:16:05;103482.63;;;3.27;70.41
83027;BME280;72842;56.038;12.706;2024-01-10T00:18:31;103473.78;;;3.30;69.86
83027;BME280;72842;56.038;12.706;2024-01-10T00:20:56;103466.75;;;3.29;70.11
83027;BME280;72842;56.038;12.706;2024-01-10T00:23:22;103457.03;;;3.24;70.35
83027;BME280;72842;56.038;12.706;2024-01-10T00:25:48;103457.06;;;3.21;69.85
83027;BME280;72842;56.038;12.706;2024-01-10T00:28:14;103467.63;;;3.29;70.26
83027;BME280;72842;56.038;12.706;2024-01-10T00:30:42;103449.97;;;3.30;70.12
83027;BME280;72842;56.038;12.706;2024-01-10T00:33:07;103442.94;;;3.29;69.74
83027;BME280;72842;56.038;12.706;2024-01-10T00:35:32;103456.16;;;3.29;69.85
83027;BME280;72842;56.038;12.706;2024-01-10T00:37:58;103458.81;;;3.29;69.85
83027;BME280;72842;56.038;12.706;2024-01-10T00:40:23;103467.59;;;3.31;70.19
83027;BME280;72842;56.038;12.706;2024-01-10T00:42:49;103471.16;;;3.30;70.30
83027;BME280;72842;56.038;12.706;2024-01-10T00:45:15;103475.56;;;3.31;69.68
83027;BME280;72842;56.038;12.706;2024-01-10T00:47:41;103472.91;;;3.31;70.30
83027;BME280;72842;56.038;12.706;2024-01-10T00:50:07;103473.81;;;3.28;70.01
83027;BME280;72842;56.038;12.706;2024-01-10T00:52:32;103469.38;;;3.25;69.77
83027;BME280;72842;56.038;12.706;2024-01-10T00:54:58;103467.59;;;3.31;70.24
83027;BME280;72842;56.038;12.706;2024-01-10T00:57:23;103477.31;;;3.30;69.91
83027;BME280;72842;56.038;12.706;2024-01-10T00:59:48;103474.69;;;3.29;70.06
83027;BME280;72842;56.038;12.706;2024-01-10T01:02:14;103473.81;;;3.28;70.33
83027;BME280;72842;56.038;12.706;2024-01-10T01:04:39;103484.38;;;3.28;70.38
83027;BME280;72842;56.038;12.706;2024-01-10T01:07:04;103472.91;;;3.31;70.32
83027;BME280;72842;56.038;12.706;2024-01-10T01:09:30;103475.56;;;3.29;69.89
83027;BME280;72842;56.038;12.706;2024-01-10T01:11:55;103472.91;;;3.31;69.68
83027;BME280;72842;56.038;12.706;2024-01-10T01:14:21;103472.91;;;3.31;70.09
83027;BME280;72842;56.038;12.706;2024-01-10T01:16:46;103470.25;;;3.31;70.19
83027;BME280;72842;56.038;12.706;2024-01-10T01:19:12;103473.78;;;3.31;70.34
83027;BME280;72842;56.038;12.706;2024-01-10T01:21:37;103468.50;;;3.31;69.70
83027;BME280;72842;56.038;12.706;2024-01-10T01:24:03;103468.50;;;3.31;70.03
83027;BME280;72842;56.038;12.706;2024-01-10T01:26:28;103464.97;;;3.31;69.88
83027;BME280;72842;56.038;12.706;2024-01-10T01:28:54;103471.13;;;3.33;70.21
83027;BME280;72842;56.038;12.706;2024-01-10T01:31:19;103472.03;;;3.33;70.06
83027;BME280;72842;56.038;12.706;2024-01-10T01:33:45;103472.03;;;3.33;69.83
83027;BME280;72842;56.038;12.706;2024-01-10T01:36:11;103477.31;;;3.33;70.11
83027;BME280;72842;56.038;12.706;2024-01-10T01:38:36;103477.31;;;3.33;69.77
83027;BME280;72842;56.038;12.706;2024-01-10T01:41:01;103478.19;;;3.32;69.67
83027;BME280;72842;56.038;12.706;2024-01-10T01:43:28;103481.72;;;3.33;69.63
83027;BME280;72842;56.038;12.706;2024-01-10T01:45:54;103478.19;;;3.34;69.72
83027;BME280;72842;56.038;12.706;2024-01-10T01:48:22;103472.91;;;3.34;69.63
83027;BME280;72842;56.038;12.706;2024-01-10T01:51:23;103470.25;;;3.32;69.62
83027;BME280;72842;56.038;12.706;2024-01-10T01:53:42;103473.78;;;3.33;69.58
83027;BME280;72842;56.038;12.706;2024-01-10T01:56:09;103468.47;;;3.33;69.80
83027;BME280;72842;56.038;12.706;2024-01-10T01:58:36;103462.31;;;3.32;69.97
83027;BME280;72842;56.038;12.706;2024-01-10T02:01:03;103461.44;;;3.33;70.00
83027;BME280;72842;56.038;12.706;2024-01-10T02:03:33;103457.03;;;3.34;69.89
83027;BME280;72842;56.038;12.706;2024-01-10T02:06:00;103462.31;;;3.34;69.84
83027;BME280;72842;56.038;12.706;2024-01-10T02:08:34;103445.56;;;3.25;69.81
83027;BME280;72842;56.038;12.706;2024-01-10T02:11:01;103466.75;;;3.33;69.45
83027;BME280;72842;56.038;12.706;2024-01-10T02:13:27;103460.53;;;3.33;69.31
83027;BME280;72842;56.038;12.706;2024-01-10T02:15:53;103448.22;;;3.33;69.53
83027;BME280;72842;56.038;12.706;2024-01-10T02:18:19;103449.09;;;3.34;69.86
83027;BME280;72842;56.038;12.706;2024-01-10T02:20:45;103455.25;;;3.33;69.36
83027;BME280;72842;56.038;12.706;2024-01-10T02:23:10;103448.19;;;3.32;69.79
83027;BME280;72842;56.038;12.706;2024-01-10T02:25:37;103460.56;;;3.34;69.30
83027;BME280;72842;56.038;12.706;2024-01-10T02:28:02;103462.31;;;3.34;69.17
83027;BME280;72842;56.038;12.706;2024-01-10T02:30:28;103457.91;;;3.34;69.64
83027;BME280;72842;56.038;12.706;2024-01-10T02:32:54;103456.13;;;3.35;69.59
83027;BME280;72842;56.038;12.706;2024-01-10T02:35:19;103464.06;;;3.35;69.25
83027;BME280;72842;56.038;12.706;2024-01-10T02:37:45;103456.13;;;3.35;69.54
83027;BME280;72842;56.038;12.706;2024-01-10T02:40:10;103453.50;;;3.35;69.55
83027;BME280;72842;56.038;12.706;2024-01-10T02:42:36;103449.97;;;3.34;69.69
83027;BME280;72842;56.038;12.706;2024-01-10T02:45:01;103453.50;;;3.35;69.52
83027;BME280;72842;56.038;12.706;2024-01-10T02:47:27;103447.31;;;3.34;69.07
83027;BME280;72842;56.038;12.706;2024-01-10T02:49:54;103447.31;;;3.34;69.48
83027;BME280;72842;56.038;12.706;2024-01-10T02:52:19;103448.19;;;3.36;69.03
83027;BME280;72842;56.038;12.706;2024-01-10T02:54:45;103443.78;;;3.35;68.96
83027;BME280;72842;56.038;12.706;2024-01-10T02:57:11;103454.38;;;3.35;68.83
83027;BME280;72842;56.038;12.706;2024-01-10T02:59:36;103452.59;;;3.36;68.93
83027;BME280;72842;56.038;12.706;2024-01-10T03:02:02;103439.38;;;3.36;69.38
83027;BME280;72842;56.038;12.706;2024-01-10T03:04:27;103442.00;;;3.36;68.99
83027;BME280;72842;56.038;12.706;2024-01-10T03:06:52;103434.94;;;3.36;69.27
83027;BME280;72842;56.038;12.706;2024-01-10T03:09:18;103438.50;;;3.35;68.80
83027;BME280;72842;56.038;12.706;2024-01-10T03:11:43;103430.56;;;3.35;68.78
83027;BME280;72842;56.038;12.706;2024-01-10T03:14:10;103428.78;;;3.34;68.73
83027;BME280;72842;56.038;12.706;2024-01-10T03:16:36;103427.03;;;3.35;69.30
83027;BME280;72842;56.038;12.706;2024-01-10T03:19:02;103427.03;;;3.33;68.82
83027;BME280;72842;56.038;12.706;2024-01-10T03:21:27;103427.03;;;3.33;69.31
83027;BME280;72842;56.038;12.706;2024-01-10T03:23:56;103425.28;;;3.34;68.66
83027;BME280;72842;56.038;12.706;2024-01-10T03:26:23;103422.63;;;3.34;69.15
83027;BME280;72842;56.038;12.706;2024-01-10T03:28:48;103420.84;;;3.34;69.19
83027;BME280;72842;56.038;12.706;2024-01-10T03:31:16;103425.25;;;3.35;69.03
83027;BME280;72842;56.038;12.706;2024-01-10T03:33:41;103419.97;;;3.34;68.98
83027;BME280;72842;56.038;12.706;2024-01-10T03:36:11;103416.44;;;3.30;69.05
83027;BME280;72842;56.038;12.706;2024-01-10T03:38:37;103418.22;;;3.34;69.22
83027;BME280;72842;56.038;12.706;2024-01-10T03:41:02;103415.56;;;3.34;69.05
83027;BME280;72842;56.038;12.706;2024-01-10T03:43:28;103413.78;;;3.35;68.83
83027;BME280;72842;56.038;12.706;2024-01-10T03:45:53;103411.16;;;3.35;68.96
83027;BME280;72842;56.038;12.706;2024-01-10T03:48:19;103402.34;;;3.27;68.86
83027;BME280;72842;56.038;12.706;2024-01-10T03:50:44;103413.81;;;3.33;68.97
83027;BME280;72842;56.038;12.706;2024-01-10T03:53:10;103410.28;;;3.34;68.54
83027;BME280;72842;56.038;12.706;2024-01-10T03:55:35;103419.97;;;3.34;68.45
83027;BME280;72842;56.038;12.706;2024-01-10T03:58:01;103412.03;;;3.34;68.89
83027;BME280;72842;56.038;12.706;2024-01-10T04:00:26;103414.69;;;3.34;69.03
83027;BME280;72842;56.038;12.706;2024-01-10T04:02:52;103412.03;;;3.34;69.04
83027;BME280;72842;56.038;12.706;2024-01-10T04:05:18;103413.81;;;3.33;68.94
83027;BME280;72842;56.038;12.706;2024-01-10T04:07:44;103409.41;;;3.34;69.09
83027;BME280;72842;56.038;12.706;2024-01-10T04:10:10;103407.63;;;3.34;68.84
83027;BME280;72842;56.038;12.706;2024-01-10T04:12:36;103407.63;;;3.31;69.13
83027;BME280;72842;56.038;12.706;2024-01-10T04:15:05;103407.63;;;3.34;68.45
83027;BME280;72842;56.038;12.706;2024-01-10T04:17:31;103396.16;;;3.31;68.89
83027;BME280;72842;56.038;12.706;2024-01-10T04:19:57;103407.63;;;3.34;68.92
83027;BME280;72842;56.038;12.706;2024-01-10T04:22:25;103405.88;;;3.33;68.42
83027;BME280;72842;56.038;12.706;2024-01-10T04:24:51;103403.22;;;3.33;68.29
83027;BME280;72842;56.038;12.706;2024-01-10T04:27:16;103404.09;;;3.34;69.00
83027;BME280;72842;56.038;12.706;2024-01-10T04:29:43;103397.94;;;3.33;68.62
83027;BME280;72842;56.038;12.706;2024-01-10T04:32:09;103397.94;;;3.33;68.96
83027;BME280;72842;56.038;12.706;2024-01-10T04:34:34;103389.09;;;3.33;68.96
83027;BME280;72842;56.038;12.706;2024-01-10T04:36:59;103389.09;;;3.33;68.83
83027;BME280;72842;56.038;12.706;2024-01-10T04:39:25;103382.06;;;3.30;68.93
83027;BME280;72842;56.038;12.706;2024-01-10T04:41:50;103387.31;;;3.32;68.58
83027;BME280;72842;56.038;12.706;2024-01-10T04:44:16;103387.34;;;3.30;68.41
83027;BME280;72842;56.038;12.706;2024-01-10T04:46:41;103375.00;;;3.29;68.80
83027;BME280;72842;56.038;12.706;2024-01-10T04:49:07;103373.22;;;3.31;68.79
83027;BME280;72842;56.038;12.706;2024-01-10T04:51:32;103369.69;;;3.31;68.55
83027;BME280;72842;56.038;12.706;2024-01-10T04:53:58;103381.16;;;3.31;68.82
83027;BME280;72842;56.038;12.706;2024-01-10T04:56:23;103379.38;;;3.32;68.90
83027;BME280;72842;56.038;12.706;2024-01-10T04:58:49;103374.09;;;3.32;68.60
83027;BME280;72842;56.038;12.706;2024-01-10T05:01:14;103367.94;;;3.27;68.77
83027;BME280;72842;56.038;12.706;2024-01-10T05:03:40;103368.81;;;3.32;68.46
83027;BME280;72842;56.038;12.706;2024-01-10T05:06:05;103375.00;;;3.31;68.70
83027;BME280;72842;56.038;12.706;2024-01-10T05:08:31;103382.94;;;3.31;68.66
83027;BME280;72842;56.038;12.706;2024-01-10T05:10:57;103380.28;;;3.31;68.51
83027;BME280;72842;56.038;12.706;2024-01-10T05:13:23;103375.00;;;3.31;68.27
83027;BME280;72842;56.038;12.706;2024-01-10T05:15:48;103368.81;;;3.30;68.23
83027;BME280;72842;56.038;12.706;2024-01-10T05:18:14;103370.59;;;3.30;68.65
83027;BME280;72842;56.038;12.706;2024-01-10T05:20:40;103356.47;;;3.29;68.69
83027;BME280;72842;56.038;12.706;2024-01-10T05:23:05;103362.63;;;3.31;68.26
83027;BME280;72842;56.038;12.706;2024-01-10T05:25:30;103358.22;;;3.30;68.68
83027;BME280;72842;56.038;12.706;2024-01-10T05:27:56;103356.47;;;3.31;68.54
83027;BME280;72842;56.038;12.706;2024-01-10T05:30:21;103362.66;;;3.30;68.74
83027;BME280;72842;56.038;12.706;2024-01-10T05:32:47;103364.41;;;3.31;68.38
83027;BME280;72842;56.038;12.706;2024-01-10T05:35:12;103363.50;;;3.32;68.65
83027;BME280;72842;56.038;12.706;2024-01-10T05:37:37;103363.53;;;3.30;68.27
83027;BME280;72842;56.038;12.706;2024-01-10T05:40:03;103369.69;;;3.31;68.49
83027;BME280;72842;56.038;12.706;2024-01-10T05:42:32;103362.66;;;3.30;68.56
83027;BME280;72842;56.038;12.706;2024-01-10T05:44:59;103361.78;;;3.26;68.14
83027;BME280;72842;56.038;12.706;2024-01-10T05:47:24;103362.66;;;3.28;68.22
83027;BME280;72842;56.038;12.706;2024-01-10T05:49:51;103367.06;;;3.29;68.09
83027;BME280;72842;56.038;12.706;2024-01-10T05:52:18;103363.53;;;3.29;68.10
83027;BME280;72842;56.038;12.706;2024-01-10T05:54:44;103361.78;;;3.28;68.66
83027;BME280;72842;56.038;12.706;2024-01-10T05:57:09;103362.66;;;3.28;68.54
83027;BME280;72842;56.038;12.706;2024-01-10T05:59:35;103367.06;;;3.29;68.49
83027;BME280;72842;56.038;12.706;2024-01-10T06:02:00;103362.66;;;3.30;68.11
83027;BME280;72842;56.038;12.706;2024-01-10T06:04:27;103364.41;;;3.31;68.49
83027;BME280;72842;56.038;12.706;2024-01-10T06:06:57;103364.41;;;3.29;68.63
83027;BME280;72842;56.038;12.706;2024-01-10T06:09:23;103361.78;;;3.29;68.52
83027;BME280;72842;56.038;12.706;2024-01-10T06:11:48;103368.81;;;3.30;68.40
83027;BME280;72842;56.038;12.706;2024-01-10T06:14:14;103357.34;;;3.30;68.47
83027;BME280;72842;56.038;12.706;2024-01-10T06:16:39;103345.03;;;3.27;68.67
83027;BME280;72842;56.038;12.706;2024-01-10T06:19:05;103349.41;;;3.30;68.07
83027;BME280;72842;56.038;12.706;2024-01-10T06:21:31;103341.50;;;3.28;68.82
83027;BME280;72842;56.038;12.706;2024-01-10T06:23:57;103346.78;;;3.28;68.53
83027;BME280;72842;56.038;12.706;2024-01-10T06:26:22;103340.63;;;3.28;68.12
83027;BME280;72842;56.038;12.706;2024-01-10T06:28:48;103340.59;;;3.26;68.35
83027;BME280;72842;56.038;12.706;2024-01-10T06:31:13;103336.19;;;3.27;68.59
83027;BME280;72842;56.038;12.706;2024-01-10T06:33:39;103338.84;;;3.27;68.18
83027;BME280;72842;56.038;12.706;2024-01-10T06:36:04;103329.16;;;3.25;68.37
83027;BME280;72842;56.038;12.706;2024-01-10T06:38:30;103323.84;;;3.25;68.33
83027;BME280;72842;56.038;12.706;2024-01-10T06:40:56;103321.22;;;3.25;68.10
83027;BME280;72842;56.038;12.706;2024-01-10T06:43:21;103325.59;;;3.27;68.41
83027;BME280;72842;56.038;12.706;2024-01-10T06:45:47;103319.44;;;3.28;68.33
83027;BME280;72842;56.038;12.706;2024-01-10T06:48:13;103308.84;;;3.26;68.57
83027;BME280;72842;56.038;12.706;2024-01-10T06:50:39;103316.81;;;3.28;68.57
83027;BME280;72842;56.038;12.706;2024-01-10T06:53:04;103311.50;;;3.28;67.98
83027;BME280;72842;56.038;12.706;2024-01-10T06:55:30;103299.19;;;3.22;68.27
83027;BME280;72842;56.038;12.706;2024-01-10T06:57:55;103323.84;;;3.29;68.55
83027;BME280;72842;56.038;12.706;2024-01-10T07:00:21;103319.44;;;3.28;68.43
83027;BME280;72842;56.038;12.706;2024-01-10T07:02:47;103318.56;;;3.27;68.55
83027;BME280;72842;56.038;12.706;2024-01-10T07:05:14;103316.81;;;3.28;68.08
83027;BME280;72842;56.038;12.706;2024-01-10T07:07:39;103308.88;;;3.28;68.19
83027;BME280;72842;56.038;12.706;2024-01-10T07:10:05;103320.31;;;3.28;68.19
83027;BME280;72842;56.038;12.706;2024-01-10T07:12:33;103322.09;;;3.29;68.52
83027;BME280;72842;56.038;12.706;2024-01-10T07:14:58;103314.13;;;3.29;68.35
83027;BME280;72842;56.038;12.706;2024-01-10T07:17:24;103309.72;;;3.30;68.16
83027;BME280;72842;56.038;12.706;2024-01-10T07:19:49;103318.56;;;3.29;68.44
83027;BME280;72842;56.038;12.706;2024-01-10T07:22:15;103326.50;;;3.29;68.27
83027;BME280;72842;56.038;12.706;2024-01-10T07:24:40;103321.19;;;3.29;68.47
83027;BME280;72842;56.038;12.706;2024-01-10T07:27:06;103322.09;;;3.28;68.76
83027;BME280;72842;56.038;12.706;2024-01-10T07:29:34;103319.44;;;3.28;68.51
83027;BME280;72842;56.038;12.706;2024-01-10T07:31:59;103323.84;;;3.30;68.19
83027;BME280;72842;56.038;12.706;2024-01-10T07:34:24;103319.44;;;3.28;68.78
83027;BME280;72842;56.038;12.706;2024-01-10T07:36:50;103331.78;;;3.30;68.18
83027;BME280;72842;56.038;12.706;2024-01-10T07:39:15;103339.72;;;3.30;68.05
83027;BME280;72842;56.038;12.706;2024-01-10T07:41:44;103341.47;;;3.31;68.18
83027;BME280;72842;56.038;12.706;2024-01-10T07:44:09;103342.34;;;3.32;68.68
83027;BME280;72842;56.038;12.706;2024-01-10T07:46:35;103346.75;;;3.31;68.19
83027;BME280;72842;56.038;12.706;2024-01-10T07:49:03;103346.75;;;3.31;68.61
83027;BME280;72842;56.038;12.706;2024-01-10T07:51:29;103346.81;;;3.23;68.65
83027;BME280;72842;56.038;12.706;2024-01-10T07:53:55;103357.34;;;3.30;68.00
83027;BME280;72842;56.038;12.706;2024-01-10T07:56:21;103360.88;;;3.30;68.10
83027;BME280;72842;56.038;12.706;2024-01-10T07:58:46;103349.41;;;3.30;68.26
83027;BME280;72842;56.038;12.706;2024-01-10T08:01:12;103352.09;;;3.28;68.51
83027;BME280;72842;56.038;12.706;2024-01-10T08:03:37;103355.59;;;3.29;68.51
83027;BME280;72842;56.038;12.706;2024-01-10T08:06:03;103358.25;;;3.29;68.87
83027;BME280;72842;56.038;12.706;2024-01-10T08:08:28;103367.94;;;3.30;68.15
83027;BME280;72842;56.038;12.706;2024-01-10T08:10:56;103357.38;;;3.28;68.24
83027;BME280;72842;56.038;12.706;2024-01-10T08:13:21;103348.53;;;3.31;68.29
83027;BME280;72842;56.038;12.706;2024-01-10T08:15:46;103354.72;;;3.30;68.04
83027;BME280;72842;56.038;12.706;2024-01-10T08:18:12;103364.41;;;3.29;68.75
83027;BME280;72842;56.038;12.706;2024-01-10T08:20:39;103372.34;;;3.31;68.86
83027;BME280;72842;56.038;12.706;2024-01-10T08:23:04;103364.41;;;3.31;68.27
83027;BME280;72842;56.038;12.706;2024-01-10T08:25:30;103367.06;;;3.31;68.66
83027;BME280;72842;56.038;12.706;2024-01-10T08:27:55;103367.06;;;3.31;68.21
83027;BME280;72842;56.038;12.706;2024-01-10T08:30:25;103364.41;;;3.31;68.27
83027;BME280;72842;56.038;12.706;2024-01-10T08:32:52;103366.16;;;3.30;68.77
83027;BME280;72842;56.038;12.706;2024-01-10T08:35:17;103360.91;;;3.27;68.74
83027;BME280;72842;56.038;12.706;2024-01-10T08:37:44;103367.94;;;3.30;68.24
83027;BME280;72842;56.038;12.706;2024-01-10T08:40:11;103361.78;;;3.28;68.79
83027;BME280;72842;56.038;12.706;2024-01-10T08:42:39;103369.69;;;3.31;68.59
83027;BME280;72842;56.038;12.706;2024-01-10T08:45:05;103360.88;;;3.32;68.97
83027;BME280;72842;56.038;12.706;2024-01-10T08:47:31;103359.97;;;3.33;68.80
83027;BME280;72842;56.038;12.706;2024-01-10T08:50:02;103364.41;;;3.34;68.97
83027;BME280;72842;56.038;12.706;2024-01-10T08:52:27;103349.41;;;3.27;68.97
83027;BME280;72842;56.038;12.706;2024-01-10T08:54:52;103360.84;;;3.38;68.97
83027;BME280;72842;56.038;12.706;2024-01-10T08:57:18;103352.94;;;3.30;68.99
83027;BME280;72842;56.038;12.706;2024-01-10T08:59:43;103371.41;;;3.41;68.68
83027;BME280;72842;56.038;12.706;2024-01-10T09:02:09;103358.22;;;3.32;69.04
83027;BME280;72842;56.038;12.706;2024-01-10T09:04:34;103365.22;;;3.42;69.09
83027;BME280;72842;56.038;12.706;2024-01-10T09:07:00;103368.78;;;3.41;68.67
83027;BME280;72842;56.038;12.706;2024-01-10T09:09:25;103364.34;;;3.41;68.70
83027;BME280;72842;56.038;12.706;2024-01-10T09:11:50;103376.69;;;3.44;69.13
83027;BME280;72842;56.038;12.706;2024-01-10T09:14:16;103366.13;;;3.38;68.71
83027;BME280;72842;56.038;12.706;2024-01-10T09:16:41;103374.00;;;3.45;68.58
83027;BME280;72842;56.038;12.706;2024-01-10T09:19:07;103379.31;;;3.47;68.60
83027;BME280;72842;56.038;12.706;2024-01-10T09:21:33;103374.00;;;3.48;68.51
83027;BME280;72842;56.038;12.706;2024-01-10T09:23:58;103364.31;;;3.44;69.10
83027;BME280;72842;56.038;12.706;2024-01-10T09:26:23;103374.88;;;3.49;69.17
83027;BME280;72842;56.038;12.706;2024-01-10T09:28:49;103359.91;;;3.43;68.69
83027;BME280;72842;56.038;12.706;2024-01-10T09:31:14;103370.47;;;3.49;68.61
83027;BME280;72842;56.038;12.706;2024-01-10T09:33:40;103368.69;;;3.50;68.56
83027;BME280;72842;56.038;12.706;2024-01-10T09:36:06;103373.13;;;3.49;69.01
83027;BME280;72842;56.038;12.706;2024-01-10T09:38:38;103375.75;;;3.49;68.82
83027;BME280;72842;56.038;12.706;2024-01-10T09:41:04;103376.66;;;3.50;68.72
83027;BME280;72842;56.038;12.706;2024-01-10T09:43:30;103381.03;;;3.51;68.48
83027;BME280;72842;56.038;12.706;2024-01-10T09:45:58;103382.84;;;3.52;68.60
83027;BME280;72842;56.038;12.706;2024-01-10T09:48:25;103372.28;;;3.46;68.93
83027;BME280;72842;56.038;12.706;2024-01-10T09:50:51;103366.09;;;3.47;68.63
83027;BME280;72842;56.038;12.706;2024-01-10T09:53:26;103374.88;;;3.54;68.83
83027;BME280;72842;56.038;12.706;2024-01-10T09:55:53;103373.97;;;3.55;68.46
83027;BME280;72842;56.038;12.706;2024-01-10T09:58:25;103382.78;;;3.55;68.80
83027;BME280;72842;56.038;12.706;2024-01-10T10:00:51;103381.03;;;3.54;68.96
83027;BME280;72842;56.038;12.706;2024-01-10T10:03:17;103381.03;;;3.56;68.78
83027;BME280;72842;56.038;12.706;2024-01-10T10:05:43;103373.13;;;3.53;68.74
83027;BME280;72842;56.038;12.706;2024-01-10T10:08:11;103373.06;;;3.57;68.68
83027;BME280;72842;56.038;12.706;2024-01-10T10:10:37;103379.25;;;3.58;68.45
83027;BME280;72842;56.038;12.706;2024-01-10T10:13:09;103354.56;;;3.56;68.75
83027;BME280;72842;56.038;12.706;2024-01-10T10:15:36;103365.13;;;3.59;68.78
83027;BME280;72842;56.038;12.706;2024-01-10T10:18:02;103358.94;;;3.60;68.45
83027;BME280;72842;56.038;12.706;2024-01-10T10:20:29;103358.06;;;3.59;68.13
83027;BME280;72842;56.038;12.706;2024-01-10T10:23:03;103361.59;;;3.60;68.93
83027;BME280;72842;56.038;12.706;2024-01-10T10:25:29;103364.25;;;3.55;68.64
83027;BME280;72842;56.038;12.706;2024-01-10T10:27:56;103358.94;;;3.58;68.46
83027;BME280;72842;56.038;12.706;2024-01-10T10:30:21;103357.19;;;3.59;68.80
83027;BME280;72842;56.038;12.706;2024-01-10T10:32:47;103361.59;;;3.60;68.37
83027;BME280;72842;56.038;12.706;2024-01-10T10:35:13;103363.34;;;3.62;68.70
83027;BME280;72842;56.038;12.706;2024-01-10T10:37:38;103363.34;;;3.62;68.43
83027;BME280;72842;56.038;12.706;2024-01-10T10:40:05;103354.50;;;3.63;68.90
83027;BME280;72842;56.038;12.706;2024-01-10T10:42:31;103350.06;;;3.64;68.51
83027;BME280;72842;56.038;12.706;2024-01-10T10:45:02;103349.19;;;3.63;68.56
83027;BME280;72842;56.038;12.706;2024-01-10T10:47:31;103353.59;;;3.64;68.65
83027;BME280;72842;56.038;12.706;2024-01-10T10:50:01;103352.75;;;3.62;68.24
83027;BME280;72842;56.038;12.706;2024-01-10T10:52:28;103366.84;;;3.64;68.75
83027;BME280;72842;56.038;12.706;2024-01-10T10:54:55;103372.16;;;3.66;68.52
83027;BME280;72842;56.038;12.706;2024-01-10T10:57:25;103365.09;;;3.66;68.58
83027;BME280;72842;56.038;12.706;2024-01-10T10:59:52;103358.00;;;3.68;68.75
83027;BME280;72842;56.038;12.706;2024-01-10T11:02:21;103355.34;;;3.68;68.43
83027;BME280;72842;56.038;12.706;2024-01-10T11:04:50;103358.88;;;3.69;68.25
83027;BME280;72842;56.038;12.706;2024-01-10T11:07:15;103365.91;;;3.70;68.71
83027;BME280;72842;56.038;12.706;2024-01-10T11:09:42;103360.63;;;3.70;68.79
83027;BME280;72842;56.038;12.706;2024-01-10T11:23:54;103340.34;;;3.67;68.73
83027;BME280;72842;56.038;12.706;2024-01-10T11:26:21;103335.03;;;3.69;68.58
83027;BME280;72842;56.038;12.706;2024-01-10T11:28:47;103345.63;;;3.69;68.53
83027;BME280;72842;56.038;12.706;2024-01-10T11:31:14;103345.63;;;3.70;68.87
83027;BME280;72842;56.038;12.706;2024-01-10T11:33:41;103335.03;;;3.70;68.18
83027;BME280;72842;56.038;12.706;2024-01-10T11:41:23;103333.28;;;3.72;68.69
83027;BME280;72842;56.038;12.706;2024-01-10T11:46:55;103326.19;;;3.70;68.61
83027;BME280;72842;56.038;12.706;2024-01-10T11:49:21;103327.09;;;3.69;68.76
83027;BME280;72842;56.038;12.706;2024-01-10T11:51:53;103326.22;;;3.68;69.06
83027;BME280;72842;56.038;12.706;2024-01-10T11:57:20;103324.44;;;3.70;68.88
83027;BME280;72842;56.038;12.706;2024-01-10T11:59:54;103319.13;;;3.70;68.86
83027;BME280;72842;56.038;12.706;2024-01-10T12:02:20;103312.09;;;3.69;68.85
83027;BME280;72842;56.038;12.706;2024-01-10T12:04:47;103313.84;;;3.70;68.78
83027;BME280;72842;56.038;12.706;2024-01-10T12:07:13;103313.84;;;3.72;69.10
83027;BME280;72842;56.038;12.706;2024-01-10T12:09:39;103299.72;;;3.70;68.47
83027;BME280;72842;56.038;12.706;2024-01-10T12:12:05;103300.63;;;3.67;68.90
83027;BME280;72842;56.038;12.706;2024-01-10T12:14:31;103305.91;;;3.70;69.28
83027;BME280;72842;56.038;12.706;2024-01-10T12:16:57;103306.78;;;3.72;68.82
83027;BME280;72842;56.038;12.706;2024-01-10T12:19:22;103312.09;;;3.72;69.16
83027;BME280;72842;56.038;12.706;2024-01-10T12:21:49;103317.41;;;3.71;69.03
83027;BME280;72842;56.038;12.706;2024-01-10T12:24:14;103303.25;;;3.72;68.71
83027;BME280;72842;56.038;12.706;2024-01-10T12:26:46;103302.38;;;3.73;68.56
83027;BME280;72842;56.038;12.706;2024-01-10T12:29:12;103297.94;;;3.70;69.02
83027;BME280;72842;56.038;12.706;2024-01-10T12:31:39;103290.91;;;3.72;69.06
83027;BME280;72842;56.038;12.706;2024-01-10T12:34:07;103289.16;;;3.71;69.39
83027;BME280;72842;56.038;12.706;2024-01-10T12:36:33;103290.03;;;3.72;69.46
83027;BME280;72842;56.038;12.706;2024-01-10T12:38:59;103279.44;;;3.69;68.82
83027;BME280;72842;56.038;12.706;2024-01-10T12:41:24;103290.03;;;3.72;69.28
83027;BME280;72842;56.038;12.706;2024-01-10T12:43:54;103282.97;;;3.69;68.95
83027;BME280;72842;56.038;12.706;2024-01-10T12:46:21;103285.63;;;3.71;68.91
83027;BME280;72842;56.038;12.706;2024-01-10T12:49:02;103275.00;;;3.69;69.27
83027;BME280;72842;56.038;12.706;2024-01-10T12:51:29;103272.38;;;3.69;69.26
83027;BME280;72842;56.038;12.706;2024-01-10T12:53:55;103271.47;;;3.70;69.18
83027;BME280;72842;56.038;12.706;2024-01-10T12:56:22;103269.72;;;3.72;69.48
83027;BME280;72842;56.038;12.706;2024-01-10T12:58:47;103267.06;;;3.72;68.96
83027;BME280;72842;56.038;12.706;2024-01-10T13:01:13;103262.66;;;3.73;69.31
83027;BME280;72842;56.038;12.706;2024-01-10T13:03:39;103267.94;;;3.73;69.09
83027;BME280;72842;56.038;12.706;2024-01-10T13:06:05;103265.28;;;3.73;69.12
83027;BME280;72842;56.038;12.706;2024-01-10T13:08:31;103277.66;;;3.72;69.03